Terminal Aerodrome Forecast
Issued by NWS Corpus Christi, TX

Home | Current Version | Previous Version | Text Only | Print | Product List | Glossary On
Versions: 1 2 3 4 5 6 7 8 9 10 11 12 13 14 15 16 17 18 19 20
000
FTUS44 KCRP 251734
TAFVCT
TAF
KVCT 251734Z 2518/2618 35008KT P6SM SCT025
     FM252000 12006KT P6SM SKC
     FM260800 15005KT 3SM BR BKN005 OVC015
     FM261500 16015G22KT P6SM SCT020=

USA.gov is the U.S. government's official web portal to all federal, state and local government web resources and services.